This is the latest recevied weather packets stored in our database for station/object AB4CZ-1. If no packets are shown the sender has not sent any weather packets the latest 10 day(s).
| Time | Temp. | Humidity | Pressure | Rain* | Wind** | Luminosity | Snow |
|---|---|---|---|---|---|---|---|
| 1777938393 | 22.78° C | 42% | 1014.8 hPa | 0 mm | - | - | - |
| 1777937792 | 23.33° C | 41% | 1014.8 hPa | 0 mm | - | - | - |
| 1777937192 | 23.89° C | 39% | 1014.8 hPa | 0 mm | - | - | - |
| 1777936892 | 23.89° C | 40% | 1014.8 hPa | 0 mm | - | - | - |
| 1777936593 | 23.89° C | 40% | 1014.9 hPa | 0 mm | - | - | - |
| 1777936292 | 24.44° C | 40% | 1014.8 hPa | 0 mm | - | - | - |
| 1777935992 | 24.44° C | 38% | 1014.9 hPa | 0 mm | - | - | - |
| 1777935092 | 24.44° C | 39% | 1014.8 hPa | 0 mm | - | - | - |
| 1777934792 | 24.44° C | 39% | 1014.8 hPa | 0 mm | - | - | - |
| 1777934499 | 24.44° C | 37% | 1014.9 hPa | 0 mm | - | - | - |
| 1777934193 | 24.44° C | 38% | 1014.9 hPa | 0 mm | - | - | - |
| 1777933893 | 24.44° C | 38% | 1014.9 hPa | 0 mm | - | - | - |
| 1777933592 | 25° C | 36% | 1014.8 hPa | 0 mm | - | - | - |
| 1777933292 | 25° C | 36% | 1014.9 hPa | 0 mm | - | - | - |
| 1777933251 | 6.11° C | 95% | 1018 hPa | 0 mm | - | - | - |
| 1777933251 | 6.11° C | 95% | 1018.1 hPa | 0 mm | - | - | - |
| 1777933251 | 6.11° C | 95% | 1018.1 hPa | 0 mm | - | - | - |
| 1777932692 | 25.56° C | 35% | 1014.9 hPa | 0 mm | - | - | - |
| 1777932392 | 25.56° C | 35% | 1014.8 hPa | 0 mm | - | - | - |
| 1777932093 | 25.56° C | 34% | 1014.8 hPa | 0 mm | - | - | - |
| 1777931792 | 25.56° C | 37% | 1014.8 hPa | 0 mm | - | - | - |
| 1777931640 | 25.56° C | 36% | 1014.8 hPa | 0 mm | - | - | - |
| 1777931544 | 25.56° C | 36% | 1014.8 hPa | 0 mm | - | - | - |
| 1777931507 | 25.56° C | 36% | 1014.8 hPa | 0 mm | - | - | - |
| 1777931192 | 25.56° C | 35% | 1014.8 hPa | 0 mm | - | - | - |
* Rain latest hour (hover to see other rain measurements)
** Current wind speed in m/s (hover to see current wind gust speed)